sensor_id;sensor_type;location;lat;lon;timestamp;P1;durP1;ratioP1;P2;durP2;ratioP2
13866;SDS011;7003;46.982;15.248;2023-01-15T00:02:17;2.73;;;2.33;;
13866;SDS011;7003;46.982;15.248;2023-01-15T00:04:44;7.53;;;2.80;;
13866;SDS011;7003;46.982;15.248;2023-01-15T00:07:11;3.83;;;2.50;;
13866;SDS011;7003;46.982;15.248;2023-01-15T00:09:38;2.73;;;1.90;;
13866;SDS011;7003;46.982;15.248;2023-01-15T00:12:06;2.20;;;1.93;;
13866;SDS011;7003;46.982;15.248;2023-01-15T00:14:33;4.63;;;3.03;;
13866;SDS011;7003;46.982;15.248;2023-01-15T00:17:03;4.87;;;2.50;;
13866;SDS011;7003;46.982;15.248;2023-01-15T00:19:31;3.20;;;2.87;;
13866;SDS011;7003;46.982;15.248;2023-01-15T00:21:59;2.80;;;2.60;;
13866;SDS011;7003;46.982;15.248;2023-01-15T00:24:28;4.67;;;2.63;;
13866;SDS011;7003;46.982;15.248;2023-01-15T00:27:13;5.20;;;4.13;;
13866;SDS011;7003;46.982;15.248;2023-01-15T00:29:58;3.23;;;2.53;;
13866;SDS011;7003;46.982;15.248;2023-01-15T00:32:28;4.13;;;2.30;;
13866;SDS011;7003;46.982;15.248;2023-01-15T00:34:59;5.00;;;4.30;;
13866;SDS011;7003;46.982;15.248;2023-01-15T00:37:26;6.43;;;3.07;;
13866;SDS011;7003;46.982;15.248;2023-01-15T00:39:55;7.40;;;3.20;;
13866;SDS011;7003;46.982;15.248;2023-01-15T00:42:22;5.20;;;3.70;;
13866;SDS011;7003;46.982;15.248;2023-01-15T00:44:49;7.40;;;3.53;;
13866;SDS011;7003;46.982;15.248;2023-01-15T00:47:17;3.33;;;2.83;;
13866;SDS011;7003;46.982;15.248;2023-01-15T00:49:46;6.87;;;2.20;;
13866;SDS011;7003;46.982;15.248;2023-01-15T00:52:16;6.03;;;3.23;;
13866;SDS011;7003;46.982;15.248;2023-01-15T00:54:45;3.67;;;2.77;;
13866;SDS011;7003;46.982;15.248;2023-01-15T00:57:13;5.63;;;3.87;;
13866;SDS011;7003;46.982;15.248;2023-01-15T00:59:40;4.27;;;2.60;;
13866;SDS011;7003;46.982;15.248;2023-01-15T01:02:09;5.87;;;2.63;;
13866;SDS011;7003;46.982;15.248;2023-01-15T01:04:36;9.43;;;3.93;;
13866;SDS011;7003;46.982;15.248;2023-01-15T01:07:03;7.03;;;3.50;;
13866;SDS011;7003;46.982;15.248;2023-01-15T01:09:32;3.97;;;2.73;;
13866;SDS011;7003;46.982;15.248;2023-01-15T01:12:01;2.63;;;2.07;;
13866;SDS011;7003;46.982;15.248;2023-01-15T01:14:31;3.30;;;2.83;;
13866;SDS011;7003;46.982;15.248;2023-01-15T01:16:58;2.80;;;2.57;;
13866;SDS011;7003;46.982;15.248;2023-01-15T01:19:25;3.13;;;2.83;;
13866;SDS011;7003;46.982;15.248;2023-01-15T01:21:55;10.07;;;3.97;;
13866;SDS011;7003;46.982;15.248;2023-01-15T01:24:24;4.60;;;3.07;;
13866;SDS011;7003;46.982;15.248;2023-01-15T01:26:53;4.43;;;2.17;;
13866;SDS011;7003;46.982;15.248;2023-01-15T01:29:23;3.30;;;1.93;;
13866;SDS011;7003;46.982;15.248;2023-01-15T01:31:54;2.53;;;1.30;;
13866;SDS011;7003;46.982;15.248;2023-01-15T01:34:21;4.27;;;2.73;;
13866;SDS011;7003;46.982;15.248;2023-01-15T01:36:51;3.97;;;2.13;;
13866;SDS011;7003;46.982;15.248;2023-01-15T01:39:18;5.83;;;2.77;;
13866;SDS011;7003;46.982;15.248;2023-01-15T01:41:46;3.77;;;2.13;;
13866;SDS011;7003;46.982;15.248;2023-01-15T01:47:20;2.47;;;2.20;;
13866;SDS011;7003;46.982;15.248;2023-01-15T01:49:51;1.77;;;1.67;;
13866;SDS011;7003;46.982;15.248;2023-01-15T01:52:24;2.07;;;1.83;;
13866;SDS011;7003;46.982;15.248;2023-01-15T01:54:56;2.67;;;2.30;;
13866;SDS011;7003;46.982;15.248;2023-01-15T01:57:24;2.87;;;1.77;;
13866;SDS011;7003;46.982;15.248;2023-01-15T01:59:51;6.37;;;3.83;;
13866;SDS011;7003;46.982;15.248;2023-01-15T02:02:22;3.27;;;2.60;;
13866;SDS011;7003;46.982;15.248;2023-01-15T02:04:52;4.47;;;2.33;;
13866;SDS011;7003;46.982;15.248;2023-01-15T02:07:25;5.67;;;3.57;;
13866;SDS011;7003;46.982;15.248;2023-01-15T02:09:53;4.57;;;2.47;;
13866;SDS011;7003;46.982;15.248;2023-01-15T02:12:21;3.20;;;2.30;;
13866;SDS011;7003;46.982;15.248;2023-01-15T02:14:55;3.47;;;2.23;;
13866;SDS011;7003;46.982;15.248;2023-01-15T02:17:32;2.27;;;2.00;;
13866;SDS011;7003;46.982;15.248;2023-01-15T02:20:15;4.13;;;1.67;;
13866;SDS011;7003;46.982;15.248;2023-01-15T02:22:53;3.40;;;2.07;;
13866;SDS011;7003;46.982;15.248;2023-01-15T02:25:48;3.87;;;2.43;;
13866;SDS011;7003;46.982;15.248;2023-01-15T02:28:25;2.73;;;2.20;;
13866;SDS011;7003;46.982;15.248;2023-01-15T02:30:58;4.47;;;2.30;;
13866;SDS011;7003;46.982;15.248;2023-01-15T02:33:32;2.40;;;1.93;;
13866;SDS011;7003;46.982;15.248;2023-01-15T02:36:07;5.87;;;2.90;;
13866;SDS011;7003;46.982;15.248;2023-01-15T02:38:38;3.77;;;1.90;;
13866;SDS011;7003;46.982;15.248;2023-01-15T02:41:13;2.63;;;2.43;;
13866;SDS011;7003;46.982;15.248;2023-01-15T02:43:45;2.47;;;1.87;;
13866;SDS011;7003;46.982;15.248;2023-01-15T02:46:16;2.57;;;2.00;;
13866;SDS011;7003;46.982;15.248;2023-01-15T02:48:49;3.97;;;2.27;;
13866;SDS011;7003;46.982;15.248;2023-01-15T02:51:20;5.67;;;4.23;;
13866;SDS011;7003;46.982;15.248;2023-01-15T02:53:52;2.70;;;1.87;;
13866;SDS011;7003;46.982;15.248;2023-01-15T02:56:25;2.50;;;2.27;;
13866;SDS011;7003;46.982;15.248;2023-01-15T02:58:58;2.97;;;2.17;;
13866;SDS011;7003;46.982;15.248;2023-01-15T03:01:30;2.40;;;2.20;;
13866;SDS011;7003;46.982;15.248;2023-01-15T03:04:05;2.03;;;1.43;;
13866;SDS011;7003;46.982;15.248;2023-01-15T03:06:36;3.43;;;2.33;;
13866;SDS011;7003;46.982;15.248;2023-01-15T03:09:08;1.47;;;1.30;;
13866;SDS011;7003;46.982;15.248;2023-01-15T03:11:36;2.07;;;1.47;;
13866;SDS011;7003;46.982;15.248;2023-01-15T03:14:13;3.53;;;1.97;;
13866;SDS011;7003;46.982;15.248;2023-01-15T03:16:46;3.53;;;2.10;;
13866;SDS011;7003;46.982;15.248;2023-01-15T03:19:23;3.10;;;2.90;;
13866;SDS011;7003;46.982;15.248;2023-01-15T03:21:58;2.60;;;2.40;;
13866;SDS011;7003;46.982;15.248;2023-01-15T03:24:34;2.00;;;1.50;;
13866;SDS011;7003;46.982;15.248;2023-01-15T03:27:06;2.83;;;2.33;;
13866;SDS011;7003;46.982;15.248;2023-01-15T03:29:39;2.20;;;1.93;;
13866;SDS011;7003;46.982;15.248;2023-01-15T03:32:13;2.33;;;2.10;;
13866;SDS011;7003;46.982;15.248;2023-01-15T03:34:45;5.20;;;2.90;;
13866;SDS011;7003;46.982;15.248;2023-01-15T03:37:15;3.53;;;2.30;;
13866;SDS011;7003;46.982;15.248;2023-01-15T03:39:46;2.83;;;1.87;;
13866;SDS011;7003;46.982;15.248;2023-01-15T03:42:17;5.03;;;3.03;;
13866;SDS011;7003;46.982;15.248;2023-01-15T03:44:56;2.97;;;1.90;;
13866;SDS011;7003;46.982;15.248;2023-01-15T03:47:34;2.90;;;2.17;;
13866;SDS011;7003;46.982;15.248;2023-01-15T03:50:11;3.97;;;2.07;;
13866;SDS011;7003;46.982;15.248;2023-01-15T03:52:44;3.10;;;2.80;;
13866;SDS011;7003;46.982;15.248;2023-01-15T03:55:23;3.03;;;2.23;;
13866;SDS011;7003;46.982;15.248;2023-01-15T03:57:56;4.97;;;2.00;;
13866;SDS011;7003;46.982;15.248;2023-01-15T04:00:29;2.20;;;1.80;;
13866;SDS011;7003;46.982;15.248;2023-01-15T04:03:01;2.73;;;1.57;;
13866;SDS011;7003;46.982;15.248;2023-01-15T04:05:30;2.80;;;2.60;;
13866;SDS011;7003;46.982;15.248;2023-01-15T04:08:02;1.23;;;1.10;;
13866;SDS011;7003;46.982;15.248;2023-01-15T04:10:31;1.33;;;1.17;;
13866;SDS011;7003;46.982;15.248;2023-01-15T04:13:00;3.60;;;2.67;;
13866;SDS011;7003;46.982;15.248;2023-01-15T04:15:31;1.73;;;1.40;;
13866;SDS011;7003;46.982;15.248;2023-01-15T04:17:59;2.70;;;1.43;;
13866;SDS011;7003;46.982;15.248;2023-01-15T04:20:28;2.43;;;1.70;;
13866;SDS011;7003;46.982;15.248;2023-01-15T04:22:55;5.10;;;3.33;;
13866;SDS011;7003;46.982;15.248;2023-01-15T04:25:22;2.30;;;2.10;;
13866;SDS011;7003;46.982;15.248;2023-01-15T04:27:49;2.20;;;1.70;;
13866;SDS011;7003;46.982;15.248;2023-01-15T04:30:19;1.53;;;1.43;;
13866;SDS011;7003;46.982;15.248;2023-01-15T04:32:48;4.40;;;1.93;;
13866;SDS011;7003;46.982;15.248;2023-01-15T04:35:19;3.83;;;1.60;;
13866;SDS011;7003;46.982;15.248;2023-01-15T04:37:46;1.50;;;1.20;;
13866;SDS011;7003;46.982;15.248;2023-01-15T04:40:13;2.20;;;1.97;;
13866;SDS011;7003;46.982;15.248;2023-01-15T04:42:58;1.93;;;1.60;;
13866;SDS011;7003;46.982;15.248;2023-01-15T04:45:45;1.80;;;1.43;;
13866;SDS011;7003;46.982;15.248;2023-01-15T04:48:14;3.00;;;1.57;;
13866;SDS011;7003;46.982;15.248;2023-01-15T04:50:41;3.00;;;1.80;;
13866;SDS011;7003;46.982;15.248;2023-01-15T04:53:08;1.87;;;1.60;;
13866;SDS011;7003;46.982;15.248;2023-01-15T04:55:36;1.57;;;1.47;;
13866;SDS011;7003;46.982;15.248;2023-01-15T05:01:01;3.37;;;1.63;;
13866;SDS011;7003;46.982;15.248;2023-01-15T05:03:31;1.63;;;1.23;;
13866;SDS011;7003;46.982;15.248;2023-01-15T05:05:59;1.30;;;1.20;;
13866;SDS011;7003;46.982;15.248;2023-01-15T05:08:27;1.63;;;1.10;;
13866;SDS011;7003;46.982;15.248;2023-01-15T05:10:54;1.77;;;1.67;;
13866;SDS011;7003;46.982;15.248;2023-01-15T05:13:21;1.90;;;1.27;;
13866;SDS011;7003;46.982;15.248;2023-01-15T05:15:48;2.17;;;2.07;;
13866;SDS011;7003;46.982;15.248;2023-01-15T05:18:15;3.00;;;1.60;;
13866;SDS011;7003;46.982;15.248;2023-01-15T05:20:47;2.80;;;0.73;;
13866;SDS011;7003;46.982;15.248;2023-01-15T05:23:15;3.57;;;1.77;;
13866;SDS011;7003;46.982;15.248;2023-01-15T05:25:45;1.80;;;1.60;;
13866;SDS011;7003;46.982;15.248;2023-01-15T05:28:12;3.90;;;2.23;;
13866;SDS011;7003;46.982;15.248;2023-01-15T05:30:39;1.90;;;1.50;;
13866;SDS011;7003;46.982;15.248;2023-01-15T05:33:06;3.40;;;2.00;;
13866;SDS011;7003;46.982;15.248;2023-01-15T05:35:34;1.93;;;1.27;;
13866;SDS011;7003;46.982;15.248;2023-01-15T05:38:02;2.27;;;1.83;;
13866;SDS011;7003;46.982;15.248;2023-01-15T05:40:34;3.10;;;1.40;;
13866;SDS011;7003;46.982;15.248;2023-01-15T05:43:04;1.67;;;1.57;;
13866;SDS011;7003;46.982;15.248;2023-01-15T05:45:33;1.67;;;1.50;;
13866;SDS011;7003;46.982;15.248;2023-01-15T05:48:03;2.63;;;2.27;;
13866;SDS011;7003;46.982;15.248;2023-01-15T05:50:30;2.83;;;1.87;;
13866;SDS011;7003;46.982;15.248;2023-01-15T05:53:00;2.93;;;1.43;;
13866;SDS011;7003;46.982;15.248;2023-01-15T05:55:29;1.30;;;1.20;;
13866;SDS011;7003;46.982;15.248;2023-01-15T05:57:56;1.93;;;1.40;;
13866;SDS011;7003;46.982;15.248;2023-01-15T06:00:23;1.13;;;0.87;;
13866;SDS011;7003;46.982;15.248;2023-01-15T06:02:53;3.10;;;1.67;;
13866;SDS011;7003;46.982;15.248;2023-01-15T06:05:20;2.83;;;1.90;;
13866;SDS011;7003;46.982;15.248;2023-01-15T06:07:47;1.47;;;1.30;;
13866;SDS011;7003;46.982;15.248;2023-01-15T06:10:17;2.50;;;2.03;;
13866;SDS011;7003;46.982;15.248;2023-01-15T06:12:46;2.47;;;2.27;;
13866;SDS011;7003;46.982;15.248;2023-01-15T06:15:15;3.87;;;2.63;;
13866;SDS011;7003;46.982;15.248;2023-01-15T06:17:43;3.30;;;2.13;;
13866;SDS011;7003;46.982;15.248;2023-01-15T06:20:13;1.17;;;1.07;;
13866;SDS011;7003;46.982;15.248;2023-01-15T06:22:41;3.27;;;1.77;;
13866;SDS011;7003;46.982;15.248;2023-01-15T06:25:08;1.93;;;1.63;;
13866;SDS011;7003;46.982;15.248;2023-01-15T06:27:36;1.50;;;1.30;;
13866;SDS011;7003;46.982;15.248;2023-01-15T06:30:06;2.67;;;1.37;;
13866;SDS011;7003;46.982;15.248;2023-01-15T06:32:35;2.10;;;1.90;;
13866;SDS011;7003;46.982;15.248;2023-01-15T06:35:04;4.07;;;2.00;;
13866;SDS011;7003;46.982;15.248;2023-01-15T06:37:35;5.10;;;1.53;;
13866;SDS011;7003;46.982;15.248;2023-01-15T06:40:07;2.50;;;2.27;;
13866;SDS011;7003;46.982;15.248;2023-01-15T06:42:36;1.87;;;1.73;;
13866;SDS011;7003;46.982;15.248;2023-01-15T06:45:24;2.23;;;1.53;;
13866;SDS011;7003;46.982;15.248;2023-01-15T06:48:11;2.47;;;2.27;;
13866;SDS011;7003;46.982;15.248;2023-01-15T06:50:41;12.97;;;6.23;;
13866;SDS011;7003;46.982;15.248;2023-01-15T06:53:09;3.53;;;3.23;;
13866;SDS011;7003;46.982;15.248;2023-01-15T06:55:41;3.53;;;2.77;;
13866;SDS011;7003;46.982;15.248;2023-01-15T06:58:10;6.33;;;2.50;;
13866;SDS011;7003;46.982;15.248;2023-01-15T07:00:40;1.77;;;1.50;;
13866;SDS011;7003;46.982;15.248;2023-01-15T07:03:10;6.27;;;3.33;;
13866;SDS011;7003;46.982;15.248;2023-01-15T07:05:39;4.27;;;3.23;;
13866;SDS011;7003;46.982;15.248;2023-01-15T07:08:10;6.80;;;2.83;;
13866;SDS011;7003;46.982;15.248;2023-01-15T07:10:39;6.17;;;4.20;;
13866;SDS011;7003;46.982;15.248;2023-01-15T07:13:08;20.47;;;12.80;;
13866;SDS011;7003;46.982;15.248;2023-01-15T07:15:40;14.20;;;10.23;;
13866;SDS011;7003;46.982;15.248;2023-01-15T07:18:09;14.23;;;10.23;;
13866;SDS011;7003;46.982;15.248;2023-01-15T07:20:40;20.73;;;13.73;;
13866;SDS011;7003;46.982;15.248;2023-01-15T07:23:09;23.87;;;13.93;;
13866;SDS011;7003;46.982;15.248;2023-01-15T07:25:38;11.93;;;6.93;;
13866;SDS011;7003;46.982;15.248;2023-01-15T07:28:09;5.07;;;4.60;;
13866;SDS011;7003;46.982;15.248;2023-01-15T07:30:40;3.83;;;3.53;;
13866;SDS011;7003;46.982;15.248;2023-01-15T07:33:09;7.63;;;5.77;;
13866;SDS011;7003;46.982;15.248;2023-01-15T07:35:39;9.63;;;5.40;;
13866;SDS011;7003;46.982;15.248;2023-01-15T07:38:07;6.17;;;4.63;;
13866;SDS011;7003;46.982;15.248;2023-01-15T07:40:36;5.63;;;5.07;;
13866;SDS011;7003;46.982;15.248;2023-01-15T07:43:05;7.47;;;4.10;;
13866;SDS011;7003;46.982;15.248;2023-01-15T07:45:54;5.80;;;2.80;;
13866;SDS011;7003;46.982;15.248;2023-01-15T07:48:39;3.17;;;2.87;;
13866;SDS011;7003;46.982;15.248;2023-01-15T07:51:27;3.07;;;2.57;;
13866;SDS011;7003;46.982;15.248;2023-01-15T07:53:59;5.43;;;3.37;;
13866;SDS011;7003;46.982;15.248;2023-01-15T07:56:28;6.37;;;3.00;;
13866;SDS011;7003;46.982;15.248;2023-01-15T07:58:57;4.30;;;3.77;;
13866;SDS011;7003;46.982;15.248;2023-01-15T08:01:30;4.67;;;2.67;;
13866;SDS011;7003;46.982;15.248;2023-01-15T08:03:58;3.17;;;2.87;;
13866;SDS011;7003;46.982;15.248;2023-01-15T08:06:27;6.13;;;4.07;;
13866;SDS011;7003;46.982;15.248;2023-01-15T08:08:58;4.17;;;2.63;;
13866;SDS011;7003;46.982;15.248;2023-01-15T08:11:28;9.87;;;2.90;;
13866;SDS011;7003;46.982;15.248;2023-01-15T08:14:13;3.20;;;2.30;;
13866;SDS011;7003;46.982;15.248;2023-01-15T08:17:00;6.03;;;3.20;;
13866;SDS011;7003;46.982;15.248;2023-01-15T08:19:32;5.57;;;2.93;;
13866;SDS011;7003;46.982;15.248;2023-01-15T08:22:02;3.00;;;2.70;;
13866;SDS011;7003;46.982;15.248;2023-01-15T08:24:31;9.13;;;2.70;;
13866;SDS011;7003;46.982;15.248;2023-01-15T08:27:03;3.40;;;2.77;;
13866;SDS011;7003;46.982;15.248;2023-01-15T08:29:35;2.87;;;2.00;;
13866;SDS011;7003;46.982;15.248;2023-01-15T08:32:08;4.23;;;2.73;;
13866;SDS011;7003;46.982;15.248;2023-01-15T08:34:39;4.53;;;3.13;;
13866;SDS011;7003;46.982;15.248;2023-01-15T08:37:08;3.90;;;3.60;;
13866;SDS011;7003;46.982;15.248;2023-01-15T08:39:36;7.80;;;4.23;;
13866;SDS011;7003;46.982;15.248;2023-01-15T08:42:04;4.13;;;3.40;;
13866;SDS011;7003;46.982;15.248;2023-01-15T08:44:35;7.33;;;3.40;;
13866;SDS011;7003;46.982;15.248;2023-01-15T08:47:04;6.53;;;3.80;;
13866;SDS011;7003;46.982;15.248;2023-01-15T08:49:33;7.00;;;4.57;;
13866;SDS011;7003;46.982;15.248;2023-01-15T08:52:03;6.70;;;5.57;;
13866;SDS011;7003;46.982;15.248;2023-01-15T08:54:31;8.33;;;5.33;;
13866;SDS011;7003;46.982;15.248;2023-01-15T08:57:00;7.97;;;6.07;;
13866;SDS011;7003;46.982;15.248;2023-01-15T08:59:28;6.73;;;5.20;;
13866;SDS011;7003;46.982;15.248;2023-01-15T09:01:57;12.87;;;8.00;;
13866;SDS011;7003;46.982;15.248;2023-01-15T09:04:25;14.00;;;10.53;;
13866;SDS011;7003;46.982;15.248;2023-01-15T09:06:58;15.77;;;9.97;;
13866;SDS011;7003;46.982;15.248;2023-01-15T09:09:28;7.93;;;5.40;;
13866;SDS011;7003;46.982;15.248;2023-01-15T09:11:57;5.73;;;4.27;;
13866;SDS011;7003;46.982;15.248;2023-01-15T09:14:28;9.83;;;4.00;;
13866;SDS011;7003;46.982;15.248;2023-01-15T09:17:00;5.10;;;3.97;;
13866;SDS011;7003;46.982;15.248;2023-01-15T09:19:28;5.00;;;3.63;;
13866;SDS011;7003;46.982;15.248;2023-01-15T09:21:59;5.43;;;3.20;;
13866;SDS011;7003;46.982;15.248;2023-01-15T09:24:27;5.03;;;3.10;;
13866;SDS011;7003;46.982;15.248;2023-01-15T09:26:57;7.87;;;3.93;;
13866;SDS011;7003;46.982;15.248;2023-01-15T09:29:28;4.57;;;3.60;;
13866;SDS011;7003;46.982;15.248;2023-01-15T09:32:00;3.10;;;2.80;;
13866;SDS011;7003;46.982;15.248;2023-01-15T09:34:29;3.00;;;2.70;;
13866;SDS011;7003;46.982;15.248;2023-01-15T09:36:59;3.10;;;2.20;;
13866;SDS011;7003;46.982;15.248;2023-01-15T09:39:27;5.43;;;3.53;;
13866;SDS011;7003;46.982;15.248;2023-01-15T09:42:03;10.90;;;3.80;;
13866;SDS011;7003;46.982;15.248;2023-01-15T09:44:50;3.90;;;2.70;;
13866;SDS011;7003;46.982;15.248;2023-01-15T09:47:32;5.97;;;3.57;;
13866;SDS011;7003;46.982;15.248;2023-01-15T09:50:10;5.37;;;3.23;;
13866;SDS011;7003;46.982;15.248;2023-01-15T09:53:00;1.97;;;1.60;;
13866;SDS011;7003;46.982;15.248;2023-01-15T09:55:41;2.67;;;2.10;;
13866;SDS011;7003;46.982;15.248;2023-01-15T09:58:14;4.20;;;2.57;;
13866;SDS011;7003;46.982;15.248;2023-01-15T10:00:47;2.93;;;2.47;;
13866;SDS011;7003;46.982;15.248;2023-01-15T10:03:22;6.10;;;3.40;;
13866;SDS011;7003;46.982;15.248;2023-01-15T10:05:58;5.73;;;3.10;;
13866;SDS011;7003;46.982;15.248;2023-01-15T10:08:35;6.70;;;3.77;;
13866;SDS011;7003;46.982;15.248;2023-01-15T10:11:19;4.33;;;3.93;;
13866;SDS011;7003;46.982;15.248;2023-01-15T10:14:21;4.70;;;3.03;;
13866;SDS011;7003;46.982;15.248;2023-01-15T10:17:13;9.33;;;4.00;;
13866;SDS011;7003;46.982;15.248;2023-01-15T10:19:46;5.30;;;4.00;;
13866;SDS011;7003;46.982;15.248;2023-01-15T10:22:17;4.97;;;4.00;;
13866;SDS011;7003;46.982;15.248;2023-01-15T10:24:59;5.20;;;2.83;;
13866;SDS011;7003;46.982;15.248;2023-01-15T10:27:33;9.87;;;5.80;;
13866;SDS011;7003;46.982;15.248;2023-01-15T10:30:05;6.77;;;4.67;;
13866;SDS011;7003;46.982;15.248;2023-01-15T10:32:43;6.80;;;4.80;;
13866;SDS011;7003;46.982;15.248;2023-01-15T10:38:13;5.87;;;4.90;;
13866;SDS011;7003;46.982;15.248;2023-01-15T10:41:04;5.07;;;3.67;;
13866;SDS011;7003;46.982;15.248;2023-01-15T10:43:47;5.00;;;3.33;;
13866;SDS011;7003;46.982;15.248;2023-01-15T10:46:21;5.17;;;4.07;;
13866;SDS011;7003;46.982;15.248;2023-01-15T10:48:55;5.77;;;4.27;;
13866;SDS011;7003;46.982;15.248;2023-01-15T10:51:30;7.20;;;3.37;;
13866;SDS011;7003;46.982;15.248;2023-01-15T10:54:09;10.47;;;4.40;;
13866;SDS011;7003;46.982;15.248;2023-01-15T10:56:46;6.97;;;4.63;;
13866;SDS011;7003;46.982;15.248;2023-01-15T10:59:24;16.03;;;7.97;;
13866;SDS011;7003;46.982;15.248;2023-01-15T11:02:03;11.67;;;6.20;;
13866;SDS011;7003;46.982;15.248;2023-01-15T11:04:50;5.73;;;4.80;;
13866;SDS011;7003;46.982;15.248;2023-01-15T11:07:20;9.77;;;3.90;;
13866;SDS011;7003;46.982;15.248;2023-01-15T11:09:55;3.57;;;3.23;;
13866;SDS011;7003;46.982;15.248;2023-01-15T11:12:30;4.23;;;3.73;;
13866;SDS011;7003;46.982;15.248;2023-01-15T11:15:20;5.00;;;3.37;;
13866;SDS011;7003;46.982;15.248;2023-01-15T11:18:12;5.93;;;3.10;;
13866;SDS011;7003;46.982;15.248;2023-01-15T11:21:08;4.80;;;3.47;;
13866;SDS011;7003;46.982;15.248;2023-01-15T11:23:40;5.93;;;3.57;;
13866;SDS011;7003;46.982;15.248;2023-01-15T11:26:09;6.63;;;3.97;;
13866;SDS011;7003;46.982;15.248;2023-01-15T11:28:48;20.07;;;5.17;;
13866;SDS011;7003;46.982;15.248;2023-01-15T11:31:17;4.53;;;3.27;;
13866;SDS011;7003;46.982;15.248;2023-01-15T11:33:54;10.90;;;4.37;;
13866;SDS011;7003;46.982;15.248;2023-01-15T11:36:27;5.07;;;4.07;;
13866;SDS011;7003;46.982;15.248;2023-01-15T11:38:56;8.20;;;5.13;;
13866;SDS011;7003;46.982;15.248;2023-01-15T11:41:29;4.60;;;4.10;;
13866;SDS011;7003;46.982;15.248;2023-01-15T11:44:14;6.17;;;3.63;;
13866;SDS011;7003;46.982;15.248;2023-01-15T11:47:03;9.03;;;5.90;;
13866;SDS011;7003;46.982;15.248;2023-01-15T11:49:54;12.50;;;8.80;;
13866;SDS011;7003;46.982;15.248;2023-01-15T11:52:36;6.63;;;5.13;;
13866;SDS011;7003;46.982;15.248;2023-01-15T11:55:13;6.00;;;4.80;;
13866;SDS011;7003;46.982;15.248;2023-01-15T11:57:48;5.13;;;4.40;;
13866;SDS011;7003;46.982;15.248;2023-01-15T12:00:22;4.93;;;3.30;;
13866;SDS011;7003;46.982;15.248;2023-01-15T12:02:52;8.30;;;5.17;;
13866;SDS011;7003;46.982;15.248;2023-01-15T12:05:27;6.70;;;4.47;;
13866;SDS011;7003;46.982;15.248;2023-01-15T12:08:00;8.07;;;3.80;;
13866;SDS011;7003;46.982;15.248;2023-01-15T12:10:44;4.37;;;3.93;;
13866;SDS011;7003;46.982;15.248;2023-01-15T12:13:37;5.57;;;4.07;;
13866;SDS011;7003;46.982;15.248;2023-01-15T12:16:16;4.85;;;3.33;;
13866;SDS011;7003;46.982;15.248;2023-01-15T12:18:54;3.97;;;3.27;;
13866;SDS011;7003;46.982;15.248;2023-01-15T12:21:39;8.27;;;3.57;;
13866;SDS011;7003;46.982;15.248;2023-01-15T12:27:36;3.87;;;3.07;;
13866;SDS011;7003;46.982;15.248;2023-01-15T12:30:19;5.23;;;4.10;;
13866;SDS011;7003;46.982;15.248;2023-01-15T12:32:57;6.07;;;3.37;;
13866;SDS011;7003;46.982;15.248;2023-01-15T12:35:34;6.07;;;4.87;;
13866;SDS011;7003;46.982;15.248;2023-01-15T12:38:09;2.90;;;2.53;;
13866;SDS011;7003;46.982;15.248;2023-01-15T12:40:44;3.73;;;3.23;;
13866;SDS011;7003;46.982;15.248;2023-01-15T12:43:18;4.90;;;3.17;;
13866;SDS011;7003;46.982;15.248;2023-01-15T12:46:07;6.37;;;3.37;;
13866;SDS011;7003;46.982;15.248;2023-01-15T12:48:44;4.77;;;2.90;;
13866;SDS011;7003;46.982;15.248;2023-01-15T12:51:20;2.77;;;2.23;;
13866;SDS011;7003;46.982;15.248;2023-01-15T12:53:56;3.33;;;2.43;;
13866;SDS011;7003;46.982;15.248;2023-01-15T12:56:32;2.53;;;2.20;;
13866;SDS011;7003;46.982;15.248;2023-01-15T12:59:09;5.80;;;3.93;;
13866;SDS011;7003;46.982;15.248;2023-01-15T13:01:47;6.23;;;4.93;;
13866;SDS011;7003;46.982;15.248;2023-01-15T13:04:27;4.60;;;3.60;;
13866;SDS011;7003;46.982;15.248;2023-01-15T13:07:02;5.37;;;3.60;;
13866;SDS011;7003;46.982;15.248;2023-01-15T13:09:40;2.63;;;2.27;;
13866;SDS011;7003;46.982;15.248;2023-01-15T13:12:11;3.90;;;3.23;;
13866;SDS011;7003;46.982;15.248;2023-01-15T13:14:41;2.57;;;2.37;;
13866;SDS011;7003;46.982;15.248;2023-01-15T13:17:16;4.27;;;3.40;;
13866;SDS011;7003;46.982;15.248;2023-01-15T13:19:57;4.20;;;3.10;;
13866;SDS011;7003;46.982;15.248;2023-01-15T13:22:45;7.80;;;4.83;;
13866;SDS011;7003;46.982;15.248;2023-01-15T13:25:38;11.97;;;6.67;;
13866;SDS011;7003;46.982;15.248;2023-01-15T13:28:25;13.63;;;7.53;;
13866;SDS011;7003;46.982;15.248;2023-01-15T13:31:25;21.43;;;6.97;;
13866;SDS011;7003;46.982;15.248;2023-01-15T13:34:22;16.17;;;6.97;;
13866;SDS011;7003;46.982;15.248;2023-01-15T13:37:04;12.80;;;9.20;;
13866;SDS011;7003;46.982;15.248;2023-01-15T13:39:41;53.70;;;26.97;;
13866;SDS011;7003;46.982;15.248;2023-01-15T13:42:14;65.57;;;32.17;;
13866;SDS011;7003;46.982;15.248;2023-01-15T13:45:00;21.80;;;14.77;;
13866;SDS011;7003;46.982;15.248;2023-01-15T13:47:35;15.20;;;8.90;;
13866;SDS011;7003;46.982;15.248;2023-01-15T13:50:12;13.27;;;8.27;;
13866;SDS011;7003;46.982;15.248;2023-01-15T13:52:46;18.10;;;10.10;;
13866;SDS011;7003;46.982;15.248;2023-01-15T13:55:18;18.57;;;9.53;;
13866;SDS011;7003;46.982;15.248;2023-01-15T13:57:52;10.40;;;7.53;;
13866;SDS011;7003;46.982;15.248;2023-01-15T14:00:25;17.30;;;12.17;;
13866;SDS011;7003;46.982;15.248;2023-01-15T14:02:57;18.67;;;9.93;;
13866;SDS011;7003;46.982;15.248;2023-01-15T14:05:28;12.30;;;8.03;;
13866;SDS011;7003;46.982;15.248;2023-01-15T14:08:13;13.63;;;8.93;;
13866;SDS011;7003;46.982;15.248;2023-01-15T14:10:43;9.80;;;7.00;;
13866;SDS011;7003;46.982;15.248;2023-01-15T14:13:20;17.10;;;9.30;;
13866;SDS011;7003;46.982;15.248;2023-01-15T14:16:14;19.93;;;12.53;;
13866;SDS011;7003;46.982;15.248;2023-01-15T14:19:02;20.27;;;13.90;;
13866;SDS011;7003;46.982;15.248;2023-01-15T14:21:56;14.47;;;10.80;;
13866;SDS011;7003;46.982;15.248;2023-01-15T14:24:42;10.40;;;6.23;;
13866;SDS011;7003;46.982;15.248;2023-01-15T14:27:23;10.97;;;5.47;;
13866;SDS011;7003;46.982;15.248;2023-01-15T14:30:15;8.57;;;6.30;;
13866;SDS011;7003;46.982;15.248;2023-01-15T14:32:59;9.00;;;6.97;;
13866;SDS011;7003;46.982;15.248;2023-01-15T14:35:40;8.97;;;6.00;;
13866;SDS011;7003;46.982;15.248;2023-01-15T14:38:15;12.30;;;6.07;;
13866;SDS011;7003;46.982;15.248;2023-01-15T14:40:53;8.43;;;5.77;;
13866;SDS011;7003;46.982;15.248;2023-01-15T14:43:26;7.43;;;5.43;;
13866;SDS011;7003;46.982;15.248;2023-01-15T14:46:06;12.97;;;7.10;;
13866;SDS011;7003;46.982;15.248;2023-01-15T14:48:39;8.47;;;6.17;;
13866;SDS011;7003;46.982;15.248;2023-01-15T14:51:09;7.07;;;5.90;;
13866;SDS011;7003;46.982;15.248;2023-01-15T14:53:42;8.33;;;6.83;;
13866;SDS011;7003;46.982;15.248;2023-01-15T14:56:18;9.90;;;7.17;;
13866;SDS011;7003;46.982;15.248;2023-01-15T14:58:57;9.10;;;6.23;;
13866;SDS011;7003;46.982;15.248;2023-01-15T15:01:34;10.07;;;5.13;;
13866;SDS011;7003;46.982;15.248;2023-01-15T15:04:12;9.20;;;6.33;;
13866;SDS011;7003;46.982;15.248;2023-01-15T15:06:50;8.63;;;4.90;;
13866;SDS011;7003;46.982;15.248;2023-01-15T15:09:25;5.63;;;4.93;;
13866;SDS011;7003;46.982;15.248;2023-01-15T15:14:52;7.77;;;4.90;;
13866;SDS011;7003;46.982;15.248;2023-01-15T15:17:30;9.13;;;7.07;;
13866;SDS011;7003;46.982;15.248;2023-01-15T15:20:15;13.80;;;6.23;;
13866;SDS011;7003;46.982;15.248;2023-01-15T15:22:50;10.17;;;5.80;;
13866;SDS011;7003;46.982;15.248;2023-01-15T15:25:22;6.87;;;4.17;;
13866;SDS011;7003;46.982;15.248;2023-01-15T15:28:02;5.40;;;4.47;;
13866;SDS011;7003;46.982;15.248;2023-01-15T15:30:32;9.47;;;6.37;;
13866;SDS011;7003;46.982;15.248;2023-01-15T15:33:02;11.47;;;8.23;;
13866;SDS011;7003;46.982;15.248;2023-01-15T15:35:34;8.63;;;6.37;;
13866;SDS011;7003;46.982;15.248;2023-01-15T15:38:13;9.47;;;6.90;;
13866;SDS011;7003;46.982;15.248;2023-01-15T15:40:47;9.97;;;5.90;;